createdAt,value
2018-08-19T00:00:29.681Z,19.27
2018-08-19T00:03:01.407Z,18.90
2018-08-19T00:05:29.980Z,20.67
2018-08-19T00:07:58.491Z,20.57
2018-08-19T00:10:41.224Z,20.83
2018-08-19T00:13:11.294Z,20.10
2018-08-19T00:15:40.833Z,19.87
2018-08-19T00:18:11.246Z,21.47
2018-08-19T00:20:39.750Z,21.70
2018-08-19T00:23:09.106Z,21.63
2018-08-19T00:25:40.687Z,23.10
2018-08-19T00:28:10.363Z,22.90
2018-08-19T00:30:38.854Z,22.87
2018-08-19T00:33:07.441Z,24.53
2018-08-19T00:35:35.971Z,24.60
2018-08-19T00:38:04.485Z,25.73
2018-08-19T00:40:33.303Z,24.83
2018-08-19T00:43:01.796Z,25.70
2018-08-19T00:45:30.585Z,24.97
2018-08-19T00:47:59.099Z,25.37
2018-08-19T00:50:27.600Z,25.87
2018-08-19T00:52:56.336Z,24.50
2018-08-19T00:55:25.414Z,24.60
2018-08-19T00:57:58.019Z,25.07
2018-08-19T01:00:27.392Z,25.50
2018-08-19T01:02:55.903Z,24.47
2018-08-19T01:05:24.942Z,24.83
2018-08-19T01:07:53.430Z,26.23
2018-08-19T01:10:21.927Z,25.20
2018-08-19T01:12:50.406Z,23.97
2018-08-19T01:15:18.895Z,25.43
2018-08-19T01:17:47.364Z,24.83
2018-08-19T01:20:20.179Z,24.83
2018-08-19T01:22:48.712Z,25.23
2018-08-19T01:25:17.239Z,25.23
2018-08-19T01:27:45.981Z,25.73
2018-08-19T01:30:16.244Z,26.43
2018-08-19T01:32:45.123Z,24.87
2018-08-19T01:35:13.933Z,24.83
2018-08-19T01:37:42.427Z,25.13
2018-08-19T01:40:13.162Z,26.00
2018-08-19T01:42:41.675Z,25.10
2018-08-19T01:45:10.702Z,25.17
2018-08-19T01:47:39.303Z,25.47
2018-08-19T01:50:10.716Z,24.73
2018-08-19T01:52:39.909Z,24.83
2018-08-19T01:55:09.295Z,24.50
2018-08-19T01:57:43.062Z,24.47
2018-08-19T02:00:12.989Z,25.07
2018-08-19T02:02:53.902Z,24.50
2018-08-19T02:05:22.750Z,24.23
2018-08-19T02:07:56.527Z,25.50
2018-08-19T02:10:25.406Z,24.40
2018-08-19T02:12:55.083Z,25.67
2018-08-19T02:15:24.402Z,25.37
2018-08-19T02:17:57.545Z,24.47
2018-08-19T02:20:28.305Z,24.87
2018-08-19T02:23:02.750Z,25.23
2018-08-19T02:25:37.398Z,24.47
2018-08-19T02:28:07.187Z,25.23
2018-08-19T02:30:36.687Z,24.00
2018-08-19T02:33:05.190Z,25.57
2018-08-19T02:35:33.630Z,25.63
2018-08-19T02:38:02.127Z,25.10
2018-08-19T02:40:32.144Z,24.90
2018-08-19T02:43:00.931Z,24.47
2018-08-19T02:45:29.429Z,26.00
2018-08-19T02:47:57.927Z,24.40
2018-08-19T02:50:27.094Z,24.70
2018-08-19T02:52:55.562Z,25.50
2018-08-19T02:55:25.252Z,26.53
2018-08-19T02:57:57.935Z,25.53
2018-08-19T03:00:26.395Z,26.03
2018-08-19T03:02:54.887Z,26.97
2018-08-19T03:05:23.331Z,24.90
2018-08-19T03:07:51.790Z,26.13
2018-08-19T03:10:20.234Z,25.07
2018-08-19T03:12:48.728Z,24.97
2018-08-19T03:15:17.216Z,26.77
2018-08-19T03:17:48.338Z,27.10
2018-08-19T03:20:17.174Z,27.53
2018-08-19T03:22:46.021Z,27.53
2018-08-19T03:25:14.479Z,26.30
2018-08-19T03:27:42.924Z,26.17
2018-08-19T03:30:13.365Z,25.13
2018-08-19T03:32:48.975Z,24.07
2018-08-19T03:35:19.264Z,24.80
2018-08-19T03:37:49.729Z,27.10
2018-08-19T03:40:18.345Z,27.53
2018-08-19T03:42:46.796Z,27.60
2018-08-19T03:45:19.201Z,27.53
2018-08-19T03:47:48.416Z,27.57
2018-08-19T03:50:23.405Z,27.27
2018-08-19T03:52:52.464Z,28.23
2018-08-19T03:55:29.690Z,27.60
2018-08-19T03:58:03.671Z,27.57
2018-08-19T04:00:34.598Z,28.13
2018-08-19T04:03:15.896Z,28.40
2018-08-19T04:05:47.556Z,27.33
2018-08-19T04:08:16.166Z,27.33
2018-08-19T04:10:46.069Z,26.07
2018-08-19T04:13:25.888Z,26.33
2018-08-19T04:15:56.346Z,26.80
2018-08-19T04:18:42.391Z,28.03
2018-08-19T04:21:13.374Z,26.47
2018-08-19T04:23:43.590Z,26.70
2018-08-19T04:26:12.394Z,26.27
2018-08-19T04:28:42.238Z,27.20
2018-08-19T04:31:15.258Z,27.03
2018-08-19T04:33:45.382Z,26.87
2018-08-19T04:36:15.819Z,26.30
2018-08-19T04:38:44.722Z,27.27
2018-08-19T04:41:13.384Z,25.17
2018-08-19T04:43:42.124Z,24.90
2018-08-19T04:46:10.977Z,26.93
2018-08-19T04:48:39.435Z,26.07
2018-08-19T04:51:07.863Z,25.57
2018-08-19T04:53:36.320Z,26.07
2018-08-19T04:56:04.795Z,25.23
2018-08-19T04:58:33.261Z,27.43
2018-08-19T05:01:01.765Z,24.87
2018-08-19T05:03:30.210Z,23.33
2018-08-19T05:06:00.499Z,22.93
2018-08-19T05:08:29.095Z,23.53
2018-08-19T05:10:57.650Z,23.60
2018-08-19T05:13:28.134Z,22.70
2018-08-19T05:15:56.651Z,21.37
2018-08-19T05:18:25.451Z,20.37
2018-08-19T05:21:02.690Z,21.63
2018-08-19T05:23:31.142Z,21.37
2018-08-19T05:25:59.590Z,19.57
2018-08-19T05:28:28.055Z,20.20
2018-08-19T05:30:57.031Z,19.50
2018-08-19T05:33:25.833Z,18.77
2018-08-19T05:35:54.675Z,19.33
2018-08-19T05:38:23.116Z,18.37
2018-08-19T05:40:56.749Z,17.17
2018-08-19T05:43:25.220Z,16.73
2018-08-19T05:45:55.850Z,16.90
2018-08-19T05:48:24.930Z,16.60
2018-08-19T05:50:54.129Z,16.00
2018-08-19T05:53:23.051Z,16.63
2018-08-19T05:55:51.830Z,15.97
2018-08-19T05:58:20.635Z,15.30
2018-08-19T06:00:53.099Z,14.87
2018-08-19T06:03:21.760Z,14.77
2018-08-19T06:05:50.939Z,13.47
2018-08-19T06:08:19.405Z,13.50
2018-08-19T06:10:48.207Z,13.27
2018-08-19T06:13:16.715Z,13.03
2018-08-19T06:15:45.273Z,13.00
2018-08-19T06:18:13.896Z,13.33
2018-08-19T06:20:42.382Z,13.70
2018-08-19T06:23:10.839Z,12.77
2018-08-19T06:25:39.362Z,13.03
2018-08-19T06:28:08.178Z,12.47
2018-08-19T06:30:37.003Z,13.13
2018-08-19T06:33:05.458Z,13.87
2018-08-19T06:35:34.270Z,12.87
2018-08-19T06:38:02.747Z,12.93
2018-08-19T06:40:31.218Z,12.47
2018-08-19T06:43:00.039Z,12.07
2018-08-19T06:45:28.690Z,12.43
2018-08-19T06:47:57.182Z,11.07
2018-08-19T06:50:33.506Z,11.50
2018-08-19T06:53:02.346Z,11.93
2018-08-19T06:55:30.840Z,12.37
2018-08-19T06:58:00.280Z,12.47
2018-08-19T07:00:30.386Z,11.60
2018-08-19T07:03:01.266Z,11.07
2018-08-19T07:05:30.150Z,10.47
2018-08-19T07:07:58.694Z,11.20
2018-08-19T07:10:32.643Z,11.33
2018-08-19T07:13:05.477Z,10.47
2018-08-19T07:15:35.038Z,10.60
2018-08-19T07:18:03.831Z,9.73
2018-08-19T07:20:32.348Z,8.83
2018-08-19T07:23:01.123Z,9.30
2018-08-19T07:25:29.639Z,9.13
2018-08-19T07:27:58.119Z,8.37
2018-08-19T07:30:26.935Z,8.30
2018-08-19T07:32:55.360Z,8.00
2018-08-19T07:35:23.807Z,7.87
2018-08-19T07:37:52.228Z,8.20
2018-08-19T07:40:20.690Z,7.10
2018-08-19T07:42:49.131Z,7.00
2018-08-19T07:45:17.983Z,6.90
2018-08-19T07:47:46.461Z,6.83
2018-08-19T07:50:14.926Z,6.93
2018-08-19T07:52:43.391Z,6.80
2018-08-19T07:55:11.855Z,6.77
2018-08-19T07:57:41.696Z,6.77
2018-08-19T08:00:10.897Z,7.63
2018-08-19T08:02:39.414Z,6.60
2018-08-19T08:05:09.263Z,6.20
2018-08-19T08:07:40.947Z,6.00
2018-08-19T08:10:09.439Z,5.63
2018-08-19T08:12:37.939Z,6.10
2018-08-19T08:15:06.683Z,6.27
2018-08-19T08:17:35.237Z,6.30
2018-08-19T08:20:04.418Z,6.27
2018-08-19T08:22:34.071Z,6.40
2018-08-19T08:25:02.643Z,5.77
2018-08-19T08:27:32.114Z,6.40
2018-08-19T08:30:05.378Z,5.10
2018-08-19T08:32:36.459Z,5.27
2018-08-19T08:35:06.501Z,6.47
2018-08-19T08:37:35.037Z,5.90
2018-08-19T08:40:08.549Z,5.63
2018-08-19T08:42:39.743Z,5.70
2018-08-19T08:45:09.030Z,5.70
2018-08-19T08:47:37.635Z,6.57
2018-08-19T08:50:06.739Z,5.60
2018-08-19T08:52:35.348Z,5.43
2018-08-19T08:55:05.131Z,5.23
2018-08-19T08:57:33.627Z,5.60
2018-08-19T09:00:02.105Z,5.43
2018-08-19T09:02:30.960Z,5.97
2018-08-19T09:05:00.115Z,5.67
2018-08-19T09:07:28.626Z,5.33
2018-08-19T09:09:57.091Z,5.90
2018-08-19T09:12:36.852Z,6.37
2018-08-19T09:15:05.823Z,5.50
2018-08-19T09:17:34.315Z,7.33
2018-08-19T09:20:02.871Z,7.33
2018-08-19T09:22:31.347Z,8.73
2018-08-19T09:24:59.815Z,10.13
2018-08-19T09:27:28.982Z,10.50
2018-08-19T09:29:57.424Z,11.70
2018-08-19T09:32:25.887Z,9.53
2018-08-19T09:34:54.339Z,9.30
2018-08-19T09:37:22.976Z,8.17
2018-08-19T09:39:51.575Z,8.43
2018-08-19T09:42:20.849Z,8.63
2018-08-19T09:44:49.370Z,8.60
2018-08-19T09:47:18.071Z,8.50
2018-08-19T09:49:46.889Z,8.17
2018-08-19T09:52:15.605Z,8.57
2018-08-19T09:54:44.426Z,9.37
2018-08-19T09:57:13.445Z,8.47
2018-08-19T09:59:42.147Z,8.13
2018-08-19T10:02:10.970Z,8.00
2018-08-19T10:04:39.784Z,8.27
2018-08-19T10:07:12.034Z,8.23
2018-08-19T10:09:40.582Z,8.13
2018-08-19T10:12:10.298Z,8.50
2018-08-19T10:14:38.761Z,7.90
2018-08-19T10:17:07.318Z,8.73
2018-08-19T10:19:36.192Z,8.73
2018-08-19T10:22:05.130Z,7.83
2018-08-19T10:24:34.544Z,8.57
2018-08-19T10:27:07.377Z,8.70
2018-08-19T10:29:36.033Z,8.27
2018-08-19T10:32:04.857Z,8.20
2018-08-19T10:34:35.438Z,9.57
2018-08-19T10:37:05.121Z,8.93
2018-08-19T10:39:33.657Z,9.27
2018-08-19T10:42:20.162Z,8.73
2018-08-19T10:44:51.240Z,8.67
2018-08-19T10:47:21.012Z,8.43
2018-08-19T10:49:59.495Z,8.50
2018-08-19T10:52:30.580Z,8.23
2018-08-19T10:55:00.548Z,7.87
2018-08-19T10:57:29.068Z,9.03
2018-08-19T10:59:59.025Z,8.40
2018-08-19T11:02:27.546Z,9.10
2018-08-19T11:04:58.087Z,7.97
2018-08-19T11:07:26.624Z,9.53
2018-08-19T11:10:11.479Z,8.17
2018-08-19T11:12:39.947Z,9.00
2018-08-19T11:15:22.699Z,9.73
2018-08-19T11:17:51.219Z,8.87
2018-08-19T11:20:20.192Z,8.93
2018-08-19T11:22:48.668Z,8.80
2018-08-19T11:25:19.470Z,8.57
2018-08-19T11:27:48.349Z,8.83
2018-08-19T11:30:21.299Z,8.03
2018-08-19T11:32:49.847Z,8.73
2018-08-19T11:40:04.969Z,8.73
2018-08-19T11:42:33.452Z,9.87
2018-08-19T11:45:02.009Z,8.73
2018-08-19T11:47:30.535Z,9.73
2018-08-19T11:49:59.046Z,10.20
2018-08-19T11:52:27.542Z,10.57
2018-08-19T11:54:56.000Z,10.13
2018-08-19T11:57:24.700Z,10.60
2018-08-19T11:59:54.718Z,9.93
2018-08-19T12:02:24.637Z,10.37
2018-08-19T12:04:53.155Z,10.00
2018-08-19T12:07:21.721Z,9.93
2018-08-19T12:10:05.011Z,10.60
2018-08-19T12:12:45.443Z,10.73
2018-08-19T12:15:13.911Z,9.40
2018-08-19T12:17:42.452Z,9.30
2018-08-19T12:20:11.024Z,9.70
2018-08-19T12:22:41.451Z,9.60
2018-08-19T12:25:09.938Z,9.53
2018-08-19T12:27:38.835Z,9.83
2018-08-19T12:30:13.369Z,9.13
2018-08-19T12:32:41.870Z,9.90
2018-08-19T12:35:10.440Z,9.13
2018-08-19T12:37:39.030Z,9.80
2018-08-19T12:40:08.071Z,9.67
2018-08-19T12:42:42.030Z,9.97
2018-08-19T12:45:10.555Z,9.47
2018-08-19T12:47:39.015Z,9.27
2018-08-19T12:50:10.528Z,9.17
2018-08-19T12:52:39.133Z,8.97
2018-08-19T12:55:10.047Z,8.57
2018-08-19T12:57:40.063Z,9.90
2018-08-19T13:00:16.871Z,10.43
2018-08-19T13:02:47.020Z,9.97
2018-08-19T13:05:16.844Z,9.50
2018-08-19T13:07:46.262Z,9.10
2018-08-19T13:10:15.075Z,9.50
2018-08-19T13:12:52.461Z,8.77
2018-08-19T13:15:21.463Z,9.83
2018-08-19T13:17:50.011Z,9.33
2018-08-19T13:20:18.540Z,9.20
2018-08-19T13:22:52.800Z,9.17
2018-08-19T13:25:22.760Z,9.47
2018-08-19T13:27:51.271Z,8.67
2018-08-19T13:30:20.574Z,9.33
2018-08-19T13:32:50.046Z,9.90
2018-08-19T13:35:18.843Z,8.77
2018-08-19T13:37:47.396Z,8.63
2018-08-19T13:40:16.131Z,9.20
2018-08-19T13:42:44.638Z,9.93
2018-08-19T13:45:19.745Z,8.77
2018-08-19T13:47:49.627Z,8.80
2018-08-19T13:50:18.128Z,9.90
2018-08-19T13:52:46.927Z,8.60
2018-08-19T13:55:17.191Z,8.67
2018-08-19T13:57:45.912Z,8.53
2018-08-19T14:00:17.637Z,9.20
2018-08-19T14:02:46.976Z,8.03
2018-08-19T14:05:15.472Z,9.43
2018-08-19T14:07:44.145Z,8.87
2018-08-19T14:10:13.626Z,9.07
2018-08-19T14:12:42.162Z,9.10
2018-08-19T14:15:11.009Z,9.00
2018-08-19T14:17:39.477Z,8.97
2018-08-19T14:20:09.043Z,9.27
2018-08-19T14:22:37.865Z,9.20
2018-08-19T14:25:07.762Z,8.83
2018-08-19T14:27:36.492Z,9.37
2018-08-19T14:30:05.850Z,8.70
2018-08-19T14:32:36.026Z,9.07
2018-08-19T14:35:05.107Z,9.27
2018-08-19T14:37:33.910Z,9.07
2018-08-19T14:40:02.887Z,8.77
2018-08-19T14:42:31.625Z,8.87
2018-08-19T14:45:00.606Z,9.10
2018-08-19T14:47:29.309Z,8.50
2018-08-19T14:49:59.239Z,8.67
2018-08-19T14:52:28.301Z,8.20
2018-08-19T14:54:56.783Z,8.10
2018-08-19T14:57:25.420Z,8.40
2018-08-19T14:59:54.299Z,8.60
2018-08-19T15:02:23.099Z,8.77
2018-08-19T15:04:51.589Z,8.63
2018-08-19T15:07:20.016Z,8.80
2018-08-19T15:09:50.019Z,8.90
2018-08-19T15:12:18.585Z,8.20
2018-08-19T15:14:47.130Z,8.47
2018-08-19T15:17:15.613Z,7.77
2018-08-19T15:19:46.218Z,8.40
2018-08-19T15:22:15.421Z,8.10
2018-08-19T15:24:43.923Z,8.93
2018-08-19T15:27:12.765Z,8.27
2018-08-19T15:29:44.022Z,8.33
2018-08-19T15:32:13.085Z,8.33
2018-08-19T15:34:41.629Z,8.07
2018-08-19T15:37:10.181Z,8.97
2018-08-19T15:39:38.906Z,7.40
2018-08-19T15:42:07.468Z,7.63
2018-08-19T15:44:36.299Z,7.97
2018-08-19T15:47:04.917Z,9.10
2018-08-19T15:49:33.517Z,11.13
2018-08-19T15:52:02.014Z,9.23
2018-08-19T15:54:30.462Z,8.87
2018-08-19T15:57:00.156Z,7.80
2018-08-19T15:59:31.739Z,9.13
2018-08-19T16:02:00.260Z,10.73
2018-08-19T16:04:28.761Z,12.13
2018-08-19T16:06:57.246Z,9.10
2018-08-19T16:09:26.941Z,8.73
2018-08-19T16:11:55.582Z,8.27
2018-08-19T16:14:27.059Z,8.17
2018-08-19T16:16:56.984Z,8.43
2018-08-19T16:19:25.817Z,9.23
2018-08-19T16:21:56.513Z,10.63
2018-08-19T16:24:25.401Z,10.47
2018-08-19T16:26:53.910Z,9.97
2018-08-19T16:29:22.923Z,14.93
2018-08-19T16:31:51.885Z,11.53
2018-08-19T16:34:20.578Z,14.93
2018-08-19T16:36:49.447Z,11.27
2018-08-19T16:39:18.762Z,13.10
2018-08-19T16:41:47.776Z,10.13
2018-08-19T16:44:16.291Z,8.73
2018-08-19T16:46:45.175Z,9.70
2018-08-19T16:49:13.976Z,8.37
2018-08-19T16:51:42.446Z,8.03
2018-08-19T16:54:10.887Z,8.10
2018-08-19T16:56:39.392Z,8.53
2018-08-19T16:59:08.326Z,8.40
2018-08-19T17:01:37.613Z,8.30
2018-08-19T17:04:06.499Z,8.73
2018-08-19T17:06:36.898Z,9.83
2018-08-19T17:09:07.203Z,8.27
2018-08-19T17:11:35.680Z,8.80
2018-08-19T17:14:04.186Z,8.13
2018-08-19T17:16:32.748Z,8.97
2018-08-19T17:19:01.270Z,8.57
2018-08-19T17:21:29.775Z,8.43
2018-08-19T17:23:58.253Z,8.23
2018-08-19T17:26:26.837Z,9.17
2018-08-19T17:28:56.283Z,8.43
2018-08-19T17:31:24.748Z,9.20
2018-08-19T17:33:53.252Z,9.13
2018-08-19T17:36:27.198Z,8.37
2018-08-19T17:38:55.881Z,7.77
2018-08-19T17:41:24.586Z,8.23
2018-08-19T17:43:53.619Z,8.20
2018-08-19T17:46:23.201Z,8.80
2018-08-19T17:48:51.779Z,9.00
2018-08-19T17:51:29.083Z,8.53
2018-08-19T17:53:57.647Z,9.03
2018-08-19T17:56:34.122Z,7.87
2018-08-19T17:59:05.121Z,8.57
2018-08-19T18:01:37.885Z,8.17
2018-08-19T18:04:07.085Z,8.93
2018-08-19T18:06:36.529Z,9.57
2018-08-19T18:11:37.533Z,8.87
2018-08-19T18:14:06.010Z,8.80
2018-08-19T18:16:34.876Z,7.80
2018-08-19T18:19:03.358Z,8.50
2018-08-19T18:24:10.569Z,8.07
2018-08-19T18:26:40.150Z,8.07
2018-08-19T18:29:08.949Z,8.40
2018-08-19T18:31:37.388Z,8.23
2018-08-19T18:34:08.328Z,8.23
2018-08-19T18:36:37.529Z,8.67
2018-08-19T18:39:09.516Z,9.00
2018-08-19T18:41:40.093Z,8.13
2018-08-19T18:44:11.135Z,8.37
2018-08-19T18:46:40.072Z,8.03
2018-08-19T18:49:10.898Z,8.37
2018-08-19T18:51:40.378Z,8.33
2018-08-19T18:54:31.518Z,8.43
2018-08-19T18:57:05.056Z,7.93
2018-08-19T18:59:33.503Z,8.33
2018-08-19T19:02:03.079Z,7.50
2018-08-19T19:04:31.554Z,8.40
2018-08-19T19:07:00.023Z,8.67
2018-08-19T19:10:03.767Z,7.93
2018-08-19T19:12:32.211Z,8.30
2018-08-19T19:15:00.668Z,8.67
2018-08-19T19:17:29.138Z,7.37
2018-08-19T19:19:57.677Z,8.70
2018-08-19T19:22:26.543Z,8.83
2018-08-19T19:24:55.026Z,7.77
2018-08-19T19:27:23.475Z,8.13
2018-08-19T19:29:57.246Z,8.53
2018-08-19T19:32:26.382Z,7.57
2018-08-19T19:34:55.238Z,7.77
2018-08-19T19:37:23.715Z,8.27
2018-08-19T19:39:57.606Z,7.67
2018-08-19T19:42:26.308Z,8.30
2018-08-19T19:44:55.640Z,8.00
2018-08-19T19:47:24.778Z,7.83
2018-08-19T19:49:58.451Z,7.53
2018-08-19T19:52:27.502Z,7.77
2018-08-19T19:54:57.697Z,7.53
2018-08-19T19:57:26.190Z,7.83
2018-08-19T19:59:54.829Z,8.00
2018-08-19T20:02:28.670Z,8.70
2018-08-19T20:04:57.899Z,7.33
2018-08-19T20:07:26.830Z,8.20
2018-08-19T20:09:55.340Z,7.70
2018-08-19T20:12:28.260Z,7.83
2018-08-19T20:14:58.452Z,7.73
2018-08-19T20:17:26.911Z,8.00
2018-08-19T20:19:55.384Z,7.33
2018-08-19T20:22:23.842Z,7.70
2018-08-19T20:24:52.305Z,7.10
2018-08-19T20:27:20.759Z,7.50
2018-08-19T20:29:51.291Z,7.53
2018-08-19T20:32:19.761Z,6.97
2018-08-19T20:34:48.226Z,6.87
2018-08-19T20:37:19.867Z,7.30
2018-08-19T20:39:48.361Z,8.17
2018-08-19T20:42:16.843Z,6.63
2018-08-19T20:44:45.310Z,7.53
2018-08-19T20:47:13.773Z,6.80
2018-08-19T20:49:42.247Z,8.27
2018-08-19T20:52:10.686Z,7.67
2018-08-19T20:54:39.446Z,7.37
2018-08-19T20:57:07.977Z,7.43
2018-08-19T20:59:37.366Z,7.33
2018-08-19T21:02:07.588Z,6.93
2018-08-19T21:04:36.090Z,7.20
2018-08-19T21:07:05.457Z,6.90
2018-08-19T21:09:35.327Z,7.73
2018-08-19T21:12:03.999Z,7.10
2018-08-19T21:14:32.559Z,8.17
2018-08-19T21:17:05.767Z,6.83
2018-08-19T21:19:35.729Z,7.33
2018-08-19T21:22:05.104Z,6.87
2018-08-19T21:24:33.695Z,7.80
2018-08-19T21:27:02.920Z,7.03
2018-08-19T21:29:32.375Z,7.53
2018-08-19T21:32:00.872Z,7.43
2018-08-19T21:34:29.817Z,7.83
2018-08-19T21:36:59.155Z,7.87
2018-08-19T21:39:27.604Z,7.70
2018-08-19T21:41:56.349Z,8.00
2018-08-19T21:44:25.196Z,8.30
2018-08-19T21:46:53.658Z,7.77
2018-08-19T21:49:22.450Z,8.27
2018-08-19T21:51:50.920Z,8.83
2018-08-19T21:54:19.376Z,8.73
2018-08-19T21:56:47.823Z,8.83
2018-08-19T21:59:22.808Z,8.80
2018-08-19T22:01:56.711Z,8.43
2018-08-19T22:04:25.751Z,8.30
2018-08-19T22:06:54.602Z,9.10
2018-08-19T22:09:30.246Z,9.33
2018-08-19T22:11:59.623Z,8.87
2018-08-19T22:14:30.029Z,8.50
2018-08-19T22:17:03.795Z,9.37
2018-08-19T22:19:32.534Z,9.00
2018-08-19T22:22:01.075Z,9.43
2018-08-19T22:24:30.620Z,10.27
2018-08-19T22:27:03.782Z,10.07
2018-08-19T22:29:32.250Z,9.10
2018-08-19T22:32:00.678Z,10.10
2018-08-19T22:34:29.164Z,10.17
2018-08-19T22:36:57.668Z,10.30
2018-08-19T22:39:26.184Z,10.30
2018-08-19T22:41:54.634Z,10.03
2018-08-19T22:44:23.110Z,9.87
2018-08-19T22:46:51.551Z,9.63
2018-08-19T22:49:20.004Z,10.23
2018-08-19T22:51:48.506Z,10.00
2018-08-19T22:54:17.019Z,10.67
2018-08-19T22:56:45.455Z,10.87
2018-08-19T22:59:13.932Z,10.73
2018-08-19T23:01:49.538Z,10.43
2018-08-19T23:04:19.033Z,10.73
2018-08-19T23:06:48.026Z,10.50
2018-08-19T23:09:16.492Z,10.20
2018-08-19T23:11:47.314Z,10.87
2018-08-19T23:14:27.134Z,11.30
2018-08-19T23:16:55.594Z,10.23
2018-08-19T23:19:24.071Z,10.70
2018-08-19T23:21:52.543Z,11.53
2018-08-19T23:24:21.559Z,11.37
2018-08-19T23:26:49.986Z,11.10
2018-08-19T23:29:18.446Z,11.60
2018-08-19T23:31:46.895Z,10.73
2018-08-19T23:34:15.343Z,11.93
2018-08-19T23:36:43.792Z,11.27
2018-08-19T23:39:12.288Z,10.80
2018-08-19T23:41:40.738Z,11.37
2018-08-19T23:44:09.568Z,12.10
2018-08-19T23:46:38.025Z,10.50
2018-08-19T23:49:06.830Z,12.30
2018-08-19T23:51:35.310Z,11.60
2018-08-19T23:54:04.315Z,11.23
2018-08-19T23:56:33.141Z,11.00
2018-08-19T23:59:01.789Z,12.00
